LIBF/FOG METAR and TAF weather

Enter ICAO airport designator
Station Type Date Time Source
LIBF METAR 2021/03/02 14:50 UTC NOAA

LIBF 021450Z 35008KT 320V020 9999 FEW060 15/07 Q1032


Station Type Date Time Source
LIBF Decoded METAR 2021/03/02 14:50 UTC NOAA

Station name not available
Mar 02, 2021 - 09:50 AM EST / 2021.03.02 1450 UTC
Wind: from the N (350 degrees) at 9 MPH (8 KT) (direction variable):0
Visibility: greater than 7 mile(s):0
Sky conditions: mostly clear
Temperature: 59 F (15 C)
Dew Point: 44 F (7 C)
Relative Humidity: 58%
Pressure (altimeter): 30.47 in. Hg (1032 hPa)
ob: LIBF 021450Z 35008KT 320V020 9999 FEW060 15/07 Q1032
cycle: 15

Station Type Date Time Source
LIBF TAF 2015/04/03 06:00 UTC NOAA

TAF LIBF 030500Z 0306/0406 35014KT 9999 FEW030

Example: see airport list